Netarts, Oregon
Current Conditions -  °F | °C
As of 8:18 PM on Tuesday 27 Jan 2015 (Local Time) from KMMV Reporting Station
Haze Haze  
Wind Chill: 48°   Ceiling: 1600
Heat Index: 48°   Visibility: 2mi
Dew Point: 47°   Wind: 0mph
Humidity: 96%   Direction: NA
Pressure: 30.23"   Gusts: NA
Location:  45.43°N, 123.95°W
Report Text: KMMV 280418Z AUTO 00000KT 2SM BR SCT008 BKN016 OVC024 09/08 A3023 RMK AO2 T00890083
Loading
Personal Weather Stations






























Interactive Weather Map New forecast layout! Learn more

10-Day Weather Forecast

Advertisements
Track Severe Weather on mobile